Terminal Aerodrome Forecast
Issued by NWS

Home | Current Version | Previous Version | Text Only | Print | Product List | Glossary On
Versions: 1 2 3 4 5 6 7 8 9 10 11 12 13
000
FTUS45 KGGW 181100
TAFSDY
TAF
KSDY 181122Z 1812/1912 VRB06KT P6SM SCT200
     FM181600 31017KT P6SM SCT100
     FM181900 34024G34KT P6SM VCSH BKN070
     FM190300 33015KT P6SM SCT200
      AMD LTD TO CLD VIS AND WIND=

USA.gov is the U.S. government's official web portal to all federal, state and local government web resources and services.